sensor_id;sensor_type;location;lat;lon;timestamp;P1;durP1;ratioP1;P2;durP2;ratioP2
74503;SDS011;62988;55.776;37.544;2022-10-17T00:00:11;9.02;;;2.83;;
74503;SDS011;62988;55.776;37.544;2022-10-17T00:02:37;6.15;;;2.88;;
74503;SDS011;62988;55.776;37.544;2022-10-17T00:05:02;4.38;;;2.17;;
74503;SDS011;62988;55.776;37.544;2022-10-17T00:07:29;7.07;;;2.67;;
74503;SDS011;62988;55.776;37.544;2022-10-17T00:09:54;12.02;;;3.10;;
74503;SDS011;62988;55.776;37.544;2022-10-17T00:12:20;6.47;;;2.38;;
74503;SDS011;62988;55.776;37.544;2022-10-17T00:14:46;6.55;;;2.60;;
74503;SDS011;62988;55.776;37.544;2022-10-17T00:17:11;6.35;;;2.72;;
74503;SDS011;62988;55.776;37.544;2022-10-17T00:19:37;5.90;;;2.72;;
74503;SDS011;62988;55.776;37.544;2022-10-17T00:22:02;8.65;;;2.95;;
74503;SDS011;62988;55.776;37.544;2022-10-17T00:24:29;10.25;;;2.70;;
74503;SDS011;62988;55.776;37.544;2022-10-17T00:26:55;6.38;;;2.60;;
74503;SDS011;62988;55.776;37.544;2022-10-17T00:29:21;6.75;;;3.22;;
74503;SDS011;62988;55.776;37.544;2022-10-17T00:31:46;6.28;;;2.67;;
74503;SDS011;62988;55.776;37.544;2022-10-17T00:34:12;8.10;;;2.53;;
74503;SDS011;62988;55.776;37.544;2022-10-17T00:36:37;7.32;;;2.47;;
74503;SDS011;62988;55.776;37.544;2022-10-17T00:39:03;5.18;;;2.58;;
74503;SDS011;62988;55.776;37.544;2022-10-17T00:41:30;7.35;;;2.65;;
74503;SDS011;62988;55.776;37.544;2022-10-17T00:44:04;6.63;;;2.45;;
74503;SDS011;62988;55.776;37.544;2022-10-17T00:46:33;9.10;;;2.80;;
74503;SDS011;62988;55.776;37.544;2022-10-17T00:49:07;8.70;;;3.28;;
74503;SDS011;62988;55.776;37.544;2022-10-17T00:51:40;6.95;;;2.95;;
74503;SDS011;62988;55.776;37.544;2022-10-17T00:54:06;6.75;;;2.92;;
74503;SDS011;62988;55.776;37.544;2022-10-17T00:56:33;6.25;;;3.15;;
74503;SDS011;62988;55.776;37.544;2022-10-17T00:58:59;6.40;;;2.97;;
74503;SDS011;62988;55.776;37.544;2022-10-17T01:01:26;6.72;;;3.13;;
74503;SDS011;62988;55.776;37.544;2022-10-17T01:03:51;5.38;;;2.83;;
74503;SDS011;62988;55.776;37.544;2022-10-17T01:06:17;12.55;;;3.22;;
74503;SDS011;62988;55.776;37.544;2022-10-17T01:08:42;7.55;;;2.88;;
74503;SDS011;62988;55.776;37.544;2022-10-17T01:13:48;6.80;;;2.67;;
74503;SDS011;62988;55.776;37.544;2022-10-17T01:16:41;7.82;;;3.08;;
74503;SDS011;62988;55.776;37.544;2022-10-17T01:22:02;11.95;;;3.67;;
74503;SDS011;62988;55.776;37.544;2022-10-17T01:27:26;6.07;;;2.55;;
74503;SDS011;62988;55.776;37.544;2022-10-17T01:33:20;5.63;;;2.90;;
74503;SDS011;62988;55.776;37.544;2022-10-17T01:36:03;6.32;;;2.75;;
74503;SDS011;62988;55.776;37.544;2022-10-17T01:38:52;10.57;;;2.72;;
74503;SDS011;62988;55.776;37.544;2022-10-17T01:44:04;8.15;;;2.63;;
74503;SDS011;62988;55.776;37.544;2022-10-17T01:49:19;6.47;;;2.58;;
74503;SDS011;62988;55.776;37.544;2022-10-17T01:51:50;9.40;;;3.42;;
74503;SDS011;62988;55.776;37.544;2022-10-17T01:57:33;6.10;;;2.85;;
74503;SDS011;62988;55.776;37.544;2022-10-17T02:00:03;13.20;;;4.30;;
74503;SDS011;62988;55.776;37.544;2022-10-17T02:02:32;4.82;;;2.40;;
74503;SDS011;62988;55.776;37.544;2022-10-17T02:05:00;8.95;;;2.92;;
74503;SDS011;62988;55.776;37.544;2022-10-17T02:07:27;8.77;;;3.05;;
74503;SDS011;62988;55.776;37.544;2022-10-17T02:09:53;5.68;;;2.40;;
74503;SDS011;62988;55.776;37.544;2022-10-17T02:12:33;10.25;;;3.17;;
74503;SDS011;62988;55.776;37.544;2022-10-17T02:20:30;6.75;;;2.30;;
74503;SDS011;62988;55.776;37.544;2022-10-17T02:23:08;7.00;;;2.83;;
74503;SDS011;62988;55.776;37.544;2022-10-17T02:28:19;7.72;;;2.63;;
74503;SDS011;62988;55.776;37.544;2022-10-17T02:30:51;5.18;;;2.72;;
74503;SDS011;62988;55.776;37.544;2022-10-17T02:33:23;6.22;;;2.60;;
74503;SDS011;62988;55.776;37.544;2022-10-17T02:35:56;7.13;;;2.63;;
74503;SDS011;62988;55.776;37.544;2022-10-17T02:38:25;7.72;;;2.80;;
74503;SDS011;62988;55.776;37.544;2022-10-17T02:40:52;6.65;;;3.30;;
74503;SDS011;62988;55.776;37.544;2022-10-17T02:43:19;8.02;;;2.70;;
74503;SDS011;62988;55.776;37.544;2022-10-17T02:45:46;6.25;;;2.88;;
74503;SDS011;62988;55.776;37.544;2022-10-17T02:53:35;7.18;;;3.25;;
74503;SDS011;62988;55.776;37.544;2022-10-17T02:56:10;8.68;;;3.45;;
74503;SDS011;62988;55.776;37.544;2022-10-17T02:58:41;4.70;;;2.55;;
74503;SDS011;62988;55.776;37.544;2022-10-17T03:01:09;6.35;;;2.75;;
74503;SDS011;62988;55.776;37.544;2022-10-17T03:03:35;7.05;;;2.97;;
74503;SDS011;62988;55.776;37.544;2022-10-17T03:06:00;7.32;;;3.08;;
74503;SDS011;62988;55.776;37.544;2022-10-17T03:08:26;5.28;;;2.42;;
74503;SDS011;62988;55.776;37.544;2022-10-17T03:10:51;7.20;;;3.40;;
74503;SDS011;62988;55.776;37.544;2022-10-17T03:13:17;7.05;;;2.80;;
74503;SDS011;62988;55.776;37.544;2022-10-17T03:15:43;8.82;;;2.95;;
74503;SDS011;62988;55.776;37.544;2022-10-17T03:18:09;6.03;;;2.80;;
74503;SDS011;62988;55.776;37.544;2022-10-17T03:20:34;6.65;;;2.95;;
74503;SDS011;62988;55.776;37.544;2022-10-17T03:23:00;6.13;;;2.58;;
74503;SDS011;62988;55.776;37.544;2022-10-17T03:25:25;8.82;;;3.13;;
74503;SDS011;62988;55.776;37.544;2022-10-17T03:27:51;6.55;;;3.20;;
74503;SDS011;62988;55.776;37.544;2022-10-17T03:30:17;7.47;;;2.65;;
74503;SDS011;62988;55.776;37.544;2022-10-17T03:32:44;8.85;;;3.20;;
74503;SDS011;62988;55.776;37.544;2022-10-17T03:35:09;3.85;;;2.08;;
74503;SDS011;62988;55.776;37.544;2022-10-17T03:37:35;9.85;;;2.97;;
74503;SDS011;62988;55.776;37.544;2022-10-17T03:40:00;6.95;;;3.15;;
74503;SDS011;62988;55.776;37.544;2022-10-17T03:42:26;6.93;;;3.28;;
74503;SDS011;62988;55.776;37.544;2022-10-17T03:44:52;10.38;;;2.75;;
74503;SDS011;62988;55.776;37.544;2022-10-17T03:47:17;7.32;;;3.10;;
74503;SDS011;62988;55.776;37.544;2022-10-17T03:49:43;7.32;;;3.40;;
74503;SDS011;62988;55.776;37.544;2022-10-17T03:52:12;4.95;;;2.63;;
74503;SDS011;62988;55.776;37.544;2022-10-17T03:54:37;21.98;;;3.92;;
74503;SDS011;62988;55.776;37.544;2022-10-17T03:57:03;5.80;;;2.40;;
74503;SDS011;62988;55.776;37.544;2022-10-17T03:59:29;7.68;;;3.35;;
74503;SDS011;62988;55.776;37.544;2022-10-17T04:01:54;9.80;;;3.72;;
74503;SDS011;62988;55.776;37.544;2022-10-17T04:04:20;9.60;;;2.90;;
74503;SDS011;62988;55.776;37.544;2022-10-17T04:06:46;6.95;;;2.90;;
74503;SDS011;62988;55.776;37.544;2022-10-17T04:09:11;10.85;;;3.35;;
74503;SDS011;62988;55.776;37.544;2022-10-17T04:11:37;5.78;;;2.83;;
74503;SDS011;62988;55.776;37.544;2022-10-17T04:14:02;8.38;;;3.55;;
74503;SDS011;62988;55.776;37.544;2022-10-17T04:16:28;9.90;;;3.28;;
74503;SDS011;62988;55.776;37.544;2022-10-17T04:18:54;6.10;;;2.90;;
74503;SDS011;62988;55.776;37.544;2022-10-17T04:21:23;8.23;;;3.08;;
74503;SDS011;62988;55.776;37.544;2022-10-17T04:23:57;9.38;;;3.85;;
74503;SDS011;62988;55.776;37.544;2022-10-17T04:26:24;5.65;;;2.83;;
74503;SDS011;62988;55.776;37.544;2022-10-17T04:28:50;13.20;;;3.47;;
74503;SDS011;62988;55.776;37.544;2022-10-17T04:31:15;6.95;;;3.00;;
74503;SDS011;62988;55.776;37.544;2022-10-17T04:33:42;9.70;;;2.92;;
74503;SDS011;62988;55.776;37.544;2022-10-17T04:36:11;12.75;;;3.30;;
74503;SDS011;62988;55.776;37.544;2022-10-17T04:38:38;4.95;;;2.80;;
74503;SDS011;62988;55.776;37.544;2022-10-17T04:41:05;18.77;;;4.13;;
74503;SDS011;62988;55.776;37.544;2022-10-17T04:43:33;12.73;;;3.30;;
74503;SDS011;62988;55.776;37.544;2022-10-17T04:46:00;13.80;;;3.70;;
74503;SDS011;62988;55.776;37.544;2022-10-17T04:48:28;10.65;;;3.17;;
74503;SDS011;62988;55.776;37.544;2022-10-17T04:50:58;10.73;;;3.50;;
74503;SDS011;62988;55.776;37.544;2022-10-17T04:53:25;9.55;;;2.50;;
74503;SDS011;62988;55.776;37.544;2022-10-17T04:55:51;11.25;;;3.05;;
74503;SDS011;62988;55.776;37.544;2022-10-17T04:58:18;12.32;;;3.47;;
74503;SDS011;62988;55.776;37.544;2022-10-17T05:00:43;7.43;;;2.85;;
74503;SDS011;62988;55.776;37.544;2022-10-17T05:03:09;6.85;;;3.40;;
74503;SDS011;62988;55.776;37.544;2022-10-17T05:05:38;7.30;;;3.00;;
74503;SDS011;62988;55.776;37.544;2022-10-17T05:10:35;13.15;;;3.33;;
74503;SDS011;62988;55.776;37.544;2022-10-17T05:13:01;8.43;;;3.55;;
74503;SDS011;62988;55.776;37.544;2022-10-17T05:15:27;11.60;;;2.95;;
74503;SDS011;62988;55.776;37.544;2022-10-17T05:17:53;10.50;;;3.95;;
74503;SDS011;62988;55.776;37.544;2022-10-17T05:20:20;8.20;;;3.28;;
74503;SDS011;62988;55.776;37.544;2022-10-17T05:22:45;6.78;;;2.60;;
74503;SDS011;62988;55.776;37.544;2022-10-17T05:25:11;12.02;;;3.33;;
74503;SDS011;62988;55.776;37.544;2022-10-17T05:27:36;12.20;;;3.90;;
74503;SDS011;62988;55.776;37.544;2022-10-17T05:30:02;11.10;;;3.47;;
74503;SDS011;62988;55.776;37.544;2022-10-17T05:32:28;19.65;;;3.60;;
74503;SDS011;62988;55.776;37.544;2022-10-17T05:34:53;8.90;;;3.85;;
74503;SDS011;62988;55.776;37.544;2022-10-17T05:37:19;10.25;;;3.05;;
74503;SDS011;62988;55.776;37.544;2022-10-17T05:39:44;8.30;;;3.20;;
74503;SDS011;62988;55.776;37.544;2022-10-17T05:42:10;11.70;;;3.70;;
74503;SDS011;62988;55.776;37.544;2022-10-17T05:44:36;9.48;;;3.65;;
74503;SDS011;62988;55.776;37.544;2022-10-17T05:47:03;12.50;;;2.97;;
74503;SDS011;62988;55.776;37.544;2022-10-17T05:49:28;17.05;;;3.35;;
74503;SDS011;62988;55.776;37.544;2022-10-17T05:51:54;17.17;;;3.60;;
74503;SDS011;62988;55.776;37.544;2022-10-17T05:54:19;9.40;;;3.05;;
74503;SDS011;62988;55.776;37.544;2022-10-17T05:56:45;7.40;;;3.42;;
74503;SDS011;62988;55.776;37.544;2022-10-17T05:59:15;10.60;;;3.92;;
74503;SDS011;62988;55.776;37.544;2022-10-17T06:01:40;15.18;;;3.42;;
74503;SDS011;62988;55.776;37.544;2022-10-17T06:04:06;8.40;;;3.17;;
74503;SDS011;62988;55.776;37.544;2022-10-17T06:06:31;8.98;;;3.35;;
74503;SDS011;62988;55.776;37.544;2022-10-17T06:08:57;12.32;;;3.53;;
74503;SDS011;62988;55.776;37.544;2022-10-17T06:11:22;19.02;;;4.25;;
74503;SDS011;62988;55.776;37.544;2022-10-17T06:13:48;9.93;;;2.95;;
74503;SDS011;62988;55.776;37.544;2022-10-17T06:16:13;12.77;;;4.10;;
74503;SDS011;62988;55.776;37.544;2022-10-17T06:18:39;18.00;;;3.85;;
74503;SDS011;62988;55.776;37.544;2022-10-17T06:21:05;9.02;;;3.50;;
74503;SDS011;62988;55.776;37.544;2022-10-17T06:23:32;12.05;;;3.45;;
74503;SDS011;62988;55.776;37.544;2022-10-17T06:26:01;11.88;;;3.20;;
74503;SDS011;62988;55.776;37.544;2022-10-17T06:28:28;8.20;;;3.70;;
74503;SDS011;62988;55.776;37.544;2022-10-17T06:30:54;11.45;;;3.30;;
74503;SDS011;62988;55.776;37.544;2022-10-17T06:33:20;12.25;;;2.83;;
74503;SDS011;62988;55.776;37.544;2022-10-17T06:35:53;11.65;;;3.72;;
74503;SDS011;62988;55.776;37.544;2022-10-17T06:38:19;11.40;;;3.47;;
74503;SDS011;62988;55.776;37.544;2022-10-17T06:40:45;7.25;;;3.00;;
74503;SDS011;62988;55.776;37.544;2022-10-17T06:43:11;11.82;;;3.33;;
74503;SDS011;62988;55.776;37.544;2022-10-17T06:45:39;9.75;;;2.92;;
74503;SDS011;62988;55.776;37.544;2022-10-17T06:48:05;9.82;;;3.80;;
74503;SDS011;62988;55.776;37.544;2022-10-17T06:50:32;13.45;;;3.55;;
74503;SDS011;62988;55.776;37.544;2022-10-17T06:52:57;6.85;;;3.20;;
74503;SDS011;62988;55.776;37.544;2022-10-17T06:55:23;11.43;;;3.50;;
74503;SDS011;62988;55.776;37.544;2022-10-17T06:57:48;12.70;;;4.07;;
74503;SDS011;62988;55.776;37.544;2022-10-17T07:00:15;12.38;;;4.20;;
74503;SDS011;62988;55.776;37.544;2022-10-17T07:02:42;11.43;;;2.95;;
74503;SDS011;62988;55.776;37.544;2022-10-17T07:05:08;13.88;;;3.72;;
74503;SDS011;62988;55.776;37.544;2022-10-17T07:07:34;8.27;;;4.13;;
74503;SDS011;62988;55.776;37.544;2022-10-17T07:09:59;11.52;;;4.03;;
74503;SDS011;62988;55.776;37.544;2022-10-17T07:12:25;9.77;;;3.60;;
74503;SDS011;62988;55.776;37.544;2022-10-17T07:14:51;9.95;;;3.30;;
74503;SDS011;62988;55.776;37.544;2022-10-17T07:17:16;9.05;;;3.83;;
74503;SDS011;62988;55.776;37.544;2022-10-17T07:19:43;9.95;;;3.70;;
74503;SDS011;62988;55.776;37.544;2022-10-17T07:22:09;8.90;;;3.30;;
74503;SDS011;62988;55.776;37.544;2022-10-17T07:24:35;12.10;;;3.90;;
74503;SDS011;62988;55.776;37.544;2022-10-17T07:27:01;11.82;;;3.13;;
74503;SDS011;62988;55.776;37.544;2022-10-17T07:29:26;10.48;;;3.13;;
74503;SDS011;62988;55.776;37.544;2022-10-17T07:31:52;11.38;;;3.28;;
74503;SDS011;62988;55.776;37.544;2022-10-17T07:34:17;10.43;;;3.63;;
74503;SDS011;62988;55.776;37.544;2022-10-17T07:36:43;12.45;;;3.60;;
74503;SDS011;62988;55.776;37.544;2022-10-17T07:39:09;18.92;;;4.47;;
74503;SDS011;62988;55.776;37.544;2022-10-17T07:41:35;9.90;;;3.60;;
74503;SDS011;62988;55.776;37.544;2022-10-17T07:44:01;10.50;;;3.75;;
74503;SDS011;62988;55.776;37.544;2022-10-17T07:46:26;10.57;;;3.63;;
74503;SDS011;62988;55.776;37.544;2022-10-17T07:48:52;15.82;;;3.90;;
74503;SDS011;62988;55.776;37.544;2022-10-17T07:51:17;13.23;;;3.78;;
74503;SDS011;62988;55.776;37.544;2022-10-17T07:53:44;10.77;;;4.20;;
74503;SDS011;62988;55.776;37.544;2022-10-17T07:56:10;9.23;;;2.88;;
74503;SDS011;62988;55.776;37.544;2022-10-17T07:58:36;12.55;;;3.95;;
74503;SDS011;62988;55.776;37.544;2022-10-17T08:01:06;11.60;;;3.72;;
74503;SDS011;62988;55.776;37.544;2022-10-17T08:03:34;7.30;;;3.50;;
74503;SDS011;62988;55.776;37.544;2022-10-17T08:06:01;8.85;;;3.17;;
74503;SDS011;62988;55.776;37.544;2022-10-17T08:08:27;7.20;;;3.67;;
74503;SDS011;62988;55.776;37.544;2022-10-17T08:10:54;11.65;;;4.05;;
74503;SDS011;62988;55.776;37.544;2022-10-17T08:13:25;9.93;;;3.75;;
74503;SDS011;62988;55.776;37.544;2022-10-17T08:15:50;14.70;;;3.85;;
74503;SDS011;62988;55.776;37.544;2022-10-17T08:18:16;11.25;;;4.28;;
74503;SDS011;62988;55.776;37.544;2022-10-17T08:20:42;11.75;;;4.00;;
74503;SDS011;62988;55.776;37.544;2022-10-17T08:23:08;10.68;;;4.10;;
74503;SDS011;62988;55.776;37.544;2022-10-17T08:25:37;9.07;;;3.53;;
74503;SDS011;62988;55.776;37.544;2022-10-17T08:28:03;10.43;;;4.28;;
74503;SDS011;62988;55.776;37.544;2022-10-17T08:30:29;9.98;;;3.78;;
74503;SDS011;62988;55.776;37.544;2022-10-17T08:32:55;7.78;;;4.32;;
74503;SDS011;62988;55.776;37.544;2022-10-17T08:35:21;13.63;;;4.70;;
74503;SDS011;62988;55.776;37.544;2022-10-17T08:37:46;10.05;;;4.35;;
74503;SDS011;62988;55.776;37.544;2022-10-17T08:40:20;10.60;;;4.20;;
74503;SDS011;62988;55.776;37.544;2022-10-17T08:42:55;11.02;;;4.22;;
74503;SDS011;62988;55.776;37.544;2022-10-17T08:45:28;10.63;;;4.13;;
74503;SDS011;62988;55.776;37.544;2022-10-17T08:47:59;11.02;;;4.10;;
74503;SDS011;62988;55.776;37.544;2022-10-17T08:50:33;11.07;;;4.30;;
74503;SDS011;62988;55.776;37.544;2022-10-17T08:55:48;21.17;;;4.50;;
74503;SDS011;62988;55.776;37.544;2022-10-17T09:11:30;9.80;;;4.32;;
74503;SDS011;62988;55.776;37.544;2022-10-17T09:19:42;17.50;;;5.03;;
74503;SDS011;62988;55.776;37.544;2022-10-17T09:22:32;11.23;;;4.10;;
74503;SDS011;62988;55.776;37.544;2022-10-17T09:25:10;15.07;;;4.72;;
74503;SDS011;62988;55.776;37.544;2022-10-17T09:27:47;10.43;;;5.00;;
74503;SDS011;62988;55.776;37.544;2022-10-17T09:30:45;16.52;;;4.75;;
74503;SDS011;62988;55.776;37.544;2022-10-17T09:33:17;13.25;;;5.05;;
74503;SDS011;62988;55.776;37.544;2022-10-17T09:35:49;12.13;;;5.10;;
74503;SDS011;62988;55.776;37.544;2022-10-17T09:38:20;4.60;;;2.60;;
74503;SDS011;62988;55.776;37.544;2022-10-17T09:40:50;11.05;;;5.32;;
74503;SDS011;62988;55.776;37.544;2022-10-17T09:43:20;13.65;;;4.15;;
74503;SDS011;62988;55.776;37.544;2022-10-17T09:45:52;9.48;;;4.80;;
74503;SDS011;62988;55.776;37.544;2022-10-17T09:48:23;13.10;;;4.75;;
74503;SDS011;62988;55.776;37.544;2022-10-17T09:50:54;13.48;;;5.22;;
74503;SDS011;62988;55.776;37.544;2022-10-17T09:53:22;16.05;;;4.90;;
74503;SDS011;62988;55.776;37.544;2022-10-17T09:55:52;11.55;;;5.47;;
74503;SDS011;62988;55.776;37.544;2022-10-17T09:58:21;10.50;;;5.43;;
74503;SDS011;62988;55.776;37.544;2022-10-17T10:00:47;11.05;;;5.40;;
74503;SDS011;62988;55.776;37.544;2022-10-17T10:03:21;10.45;;;5.68;;
74503;SDS011;62988;55.776;37.544;2022-10-17T10:08:48;13.88;;;5.40;;
74503;SDS011;62988;55.776;37.544;2022-10-17T10:11:22;12.63;;;5.03;;
74503;SDS011;62988;55.776;37.544;2022-10-17T10:13:51;11.43;;;5.03;;
74503;SDS011;62988;55.776;37.544;2022-10-17T10:16:21;10.77;;;4.28;;
74503;SDS011;62988;55.776;37.544;2022-10-17T10:18:53;11.55;;;4.43;;
74503;SDS011;62988;55.776;37.544;2022-10-17T10:21:20;9.73;;;4.97;;
74503;SDS011;62988;55.776;37.544;2022-10-17T10:26:42;10.13;;;3.63;;
74503;SDS011;62988;55.776;37.544;2022-10-17T10:29:31;9.98;;;4.55;;
74503;SDS011;62988;55.776;37.544;2022-10-17T10:32:21;11.25;;;5.00;;
74503;SDS011;62988;55.776;37.544;2022-10-17T10:35:02;8.70;;;5.15;;
74503;SDS011;62988;55.776;37.544;2022-10-17T10:39:57;8.73;;;4.72;;
74503;SDS011;62988;55.776;37.544;2022-10-17T10:42:35;9.15;;;4.70;;
74503;SDS011;62988;55.776;37.544;2022-10-17T10:45:14;11.25;;;4.78;;
74503;SDS011;62988;55.776;37.544;2022-10-17T10:47:54;11.48;;;4.43;;
74503;SDS011;62988;55.776;37.544;2022-10-17T10:55:58;8.40;;;4.22;;
74503;SDS011;62988;55.776;37.544;2022-10-17T10:58:51;8.10;;;4.32;;
74503;SDS011;62988;55.776;37.544;2022-10-17T11:01:52;8.40;;;4.60;;
74503;SDS011;62988;55.776;37.544;2022-10-17T11:04:30;10.30;;;5.05;;
74503;SDS011;62988;55.776;37.544;2022-10-17T11:07:05;12.10;;;4.78;;
74503;SDS011;62988;55.776;37.544;2022-10-17T11:20:32;11.73;;;5.18;;
74503;SDS011;62988;55.776;37.544;2022-10-17T11:23:22;9.65;;;5.20;;
74503;SDS011;62988;55.776;37.544;2022-10-17T11:25:49;11.35;;;4.65;;
74503;SDS011;62988;55.776;37.544;2022-10-17T11:28:18;9.18;;;4.75;;
74503;SDS011;62988;55.776;37.544;2022-10-17T11:30:50;12.57;;;5.57;;
74503;SDS011;62988;55.776;37.544;2022-10-17T11:33:59;11.02;;;5.50;;
74503;SDS011;62988;55.776;37.544;2022-10-17T11:36:31;10.00;;;3.95;;
74503;SDS011;62988;55.776;37.544;2022-10-17T11:39:01;11.13;;;5.55;;
74503;SDS011;62988;55.776;37.544;2022-10-17T11:41:39;11.77;;;5.95;;
74503;SDS011;62988;55.776;37.544;2022-10-17T11:44:12;12.93;;;5.97;;
74503;SDS011;62988;55.776;37.544;2022-10-17T11:46:42;14.85;;;5.78;;
74503;SDS011;62988;55.776;37.544;2022-10-17T11:52:18;14.80;;;6.38;;
74503;SDS011;62988;55.776;37.544;2022-10-17T11:55:14;12.25;;;5.70;;
74503;SDS011;62988;55.776;37.544;2022-10-17T11:57:51;17.27;;;6.90;;
74503;SDS011;62988;55.776;37.544;2022-10-17T12:00:59;15.98;;;6.15;;
74503;SDS011;62988;55.776;37.544;2022-10-17T12:11:59;12.95;;;6.35;;
74503;SDS011;62988;55.776;37.544;2022-10-17T12:14:34;13.90;;;6.13;;
74503;SDS011;62988;55.776;37.544;2022-10-17T12:25:27;15.93;;;6.35;;
74503;SDS011;62988;55.776;37.544;2022-10-17T12:28:15;12.68;;;6.00;;
74503;SDS011;62988;55.776;37.544;2022-10-17T12:33:20;14.57;;;6.43;;
74503;SDS011;62988;55.776;37.544;2022-10-17T12:38:37;13.57;;;6.65;;
74503;SDS011;62988;55.776;37.544;2022-10-17T12:41:03;13.05;;;5.60;;
74503;SDS011;62988;55.776;37.544;2022-10-17T12:43:51;15.70;;;7.05;;
74503;SDS011;62988;55.776;37.544;2022-10-17T12:49:24;13.60;;;6.68;;
74503;SDS011;62988;55.776;37.544;2022-10-17T12:52:17;10.65;;;6.25;;
74503;SDS011;62988;55.776;37.544;2022-10-17T13:00:48;14.10;;;6.85;;
74503;SDS011;62988;55.776;37.544;2022-10-17T13:02:48;14.18;;;6.60;;
74503;SDS011;62988;55.776;37.544;2022-10-17T13:05:21;11.60;;;6.32;;
74503;SDS011;62988;55.776;37.544;2022-10-17T13:07:52;12.75;;;6.18;;
74503;SDS011;62988;55.776;37.544;2022-10-17T13:10:21;12.60;;;6.20;;
74503;SDS011;62988;55.776;37.544;2022-10-17T13:12:50;15.75;;;6.72;;
74503;SDS011;62988;55.776;37.544;2022-10-17T13:15:21;11.82;;;5.65;;
74503;SDS011;62988;55.776;37.544;2022-10-17T13:17:54;14.65;;;6.28;;
74503;SDS011;62988;55.776;37.544;2022-10-17T13:20:21;9.75;;;4.75;;
74503;SDS011;62988;55.776;37.544;2022-10-17T13:22:49;15.15;;;6.35;;
74503;SDS011;62988;55.776;37.544;2022-10-17T13:25:17;13.48;;;5.97;;
74503;SDS011;62988;55.776;37.544;2022-10-17T13:27:44;12.77;;;5.50;;
74503;SDS011;62988;55.776;37.544;2022-10-17T13:30:24;13.65;;;6.18;;
74503;SDS011;62988;55.776;37.544;2022-10-17T13:32:54;14.45;;;6.00;;
74503;SDS011;62988;55.776;37.544;2022-10-17T13:35:25;16.13;;;6.88;;
74503;SDS011;62988;55.776;37.544;2022-10-17T13:37:54;14.82;;;6.13;;
74503;SDS011;62988;55.776;37.544;2022-10-17T13:40:27;16.00;;;6.75;;
74503;SDS011;62988;55.776;37.544;2022-10-17T13:42:55;13.70;;;6.15;;
74503;SDS011;62988;55.776;37.544;2022-10-17T13:45:29;15.25;;;6.43;;
74503;SDS011;62988;55.776;37.544;2022-10-17T13:48:02;12.85;;;6.32;;
74503;SDS011;62988;55.776;37.544;2022-10-17T13:58:21;22.40;;;7.00;;
74503;SDS011;62988;55.776;37.544;2022-10-17T14:00:48;13.65;;;6.55;;
74503;SDS011;62988;55.776;37.544;2022-10-17T14:03:16;17.58;;;6.53;;
74503;SDS011;62988;55.776;37.544;2022-10-17T14:08:57;15.93;;;7.05;;
74503;SDS011;62988;55.776;37.544;2022-10-17T14:11:35;13.85;;;6.20;;
74503;SDS011;62988;55.776;37.544;2022-10-17T14:14:06;13.95;;;7.03;;
74503;SDS011;62988;55.776;37.544;2022-10-17T14:16:46;15.50;;;7.55;;
74503;SDS011;62988;55.776;37.544;2022-10-17T14:19:22;15.50;;;6.78;;
74503;SDS011;62988;55.776;37.544;2022-10-17T14:22:13;14.77;;;5.80;;
74503;SDS011;62988;55.776;37.544;2022-10-17T14:24:44;14.35;;;6.35;;
74503;SDS011;62988;55.776;37.544;2022-10-17T14:29:53;15.48;;;6.47;;
74503;SDS011;62988;55.776;37.544;2022-10-17T14:32:24;15.10;;;7.05;;
74503;SDS011;62988;55.776;37.544;2022-10-17T14:34:52;16.88;;;7.20;;
74503;SDS011;62988;55.776;37.544;2022-10-17T14:39:51;14.55;;;6.47;;
74503;SDS011;62988;55.776;37.544;2022-10-17T14:42:19;19.95;;;6.97;;
74503;SDS011;62988;55.776;37.544;2022-10-17T14:44:50;16.48;;;7.28;;
74503;SDS011;62988;55.776;37.544;2022-10-17T14:47:18;16.75;;;6.07;;
74503;SDS011;62988;55.776;37.544;2022-10-17T14:49:48;16.17;;;6.55;;
74503;SDS011;62988;55.776;37.544;2022-10-17T14:54:43;19.80;;;6.65;;
74503;SDS011;62988;55.776;37.544;2022-10-17T14:59:57;15.32;;;7.45;;
74503;SDS011;62988;55.776;37.544;2022-10-17T15:02:23;16.85;;;8.02;;
74503;SDS011;62988;55.776;37.544;2022-10-17T15:04:49;15.75;;;7.32;;
74503;SDS011;62988;55.776;37.544;2022-10-17T15:07:16;16.35;;;6.53;;
74503;SDS011;62988;55.776;37.544;2022-10-17T15:09:42;13.10;;;5.97;;
74503;SDS011;62988;55.776;37.544;2022-10-17T15:12:16;16.48;;;6.97;;
74503;SDS011;62988;55.776;37.544;2022-10-17T15:14:45;14.82;;;6.40;;
74503;SDS011;62988;55.776;37.544;2022-10-17T15:19:42;13.50;;;6.38;;
74503;SDS011;62988;55.776;37.544;2022-10-17T15:22:08;14.52;;;7.05;;
74503;SDS011;62988;55.776;37.544;2022-10-17T15:24:35;15.93;;;6.75;;
74503;SDS011;62988;55.776;37.544;2022-10-17T15:27:01;15.13;;;6.28;;
74503;SDS011;62988;55.776;37.544;2022-10-17T15:29:26;14.73;;;7.20;;
74503;SDS011;62988;55.776;37.544;2022-10-17T15:31:52;16.33;;;7.85;;
74503;SDS011;62988;55.776;37.544;2022-10-17T15:34:18;14.30;;;7.18;;
74503;SDS011;62988;55.776;37.544;2022-10-17T15:36:47;14.23;;;6.53;;
74503;SDS011;62988;55.776;37.544;2022-10-17T15:39:14;14.80;;;6.50;;
74503;SDS011;62988;55.776;37.544;2022-10-17T15:41:40;12.60;;;6.50;;
74503;SDS011;62988;55.776;37.544;2022-10-17T15:44:05;14.75;;;6.35;;
74503;SDS011;62988;55.776;37.544;2022-10-17T15:46:34;14.10;;;6.55;;
74503;SDS011;62988;55.776;37.544;2022-10-17T15:49:06;13.23;;;7.35;;
74503;SDS011;62988;55.776;37.544;2022-10-17T15:51:37;13.23;;;5.75;;
74503;SDS011;62988;55.776;37.544;2022-10-17T15:54:02;14.35;;;6.65;;
74503;SDS011;62988;55.776;37.544;2022-10-17T15:56:39;11.68;;;6.20;;
74503;SDS011;62988;55.776;37.544;2022-10-17T15:59:15;10.90;;;4.60;;
74503;SDS011;62988;55.776;37.544;2022-10-17T16:01:44;13.50;;;6.57;;
74503;SDS011;62988;55.776;37.544;2022-10-17T16:04:12;17.00;;;6.18;;
74503;SDS011;62988;55.776;37.544;2022-10-17T16:09:05;15.18;;;7.10;;
74503;SDS011;62988;55.776;37.544;2022-10-17T16:11:34;15.18;;;6.30;;
74503;SDS011;62988;55.776;37.544;2022-10-17T16:14:03;12.13;;;5.72;;
74503;SDS011;62988;55.776;37.544;2022-10-17T16:16:32;11.40;;;5.82;;
74503;SDS011;62988;55.776;37.544;2022-10-17T16:18:58;15.07;;;6.97;;
74503;SDS011;62988;55.776;37.544;2022-10-17T16:21:25;12.88;;;6.93;;
74503;SDS011;62988;55.776;37.544;2022-10-17T16:23:53;16.10;;;7.32;;
74503;SDS011;62988;55.776;37.544;2022-10-17T16:26:19;15.45;;;5.97;;
74503;SDS011;62988;55.776;37.544;2022-10-17T16:28:45;14.43;;;6.25;;
74503;SDS011;62988;55.776;37.544;2022-10-17T16:31:16;14.00;;;7.03;;
74503;SDS011;62988;55.776;37.544;2022-10-17T16:33:42;16.42;;;6.85;;
74503;SDS011;62988;55.776;37.544;2022-10-17T16:36:08;13.55;;;6.85;;
74503;SDS011;62988;55.776;37.544;2022-10-17T16:38:34;13.77;;;6.35;;
74503;SDS011;62988;55.776;37.544;2022-10-17T16:41:00;16.98;;;6.82;;
74503;SDS011;62988;55.776;37.544;2022-10-17T16:43:25;12.35;;;6.75;;
74503;SDS011;62988;55.776;37.544;2022-10-17T16:45:51;11.50;;;5.78;;
74503;SDS011;62988;55.776;37.544;2022-10-17T16:48:16;13.10;;;5.45;;
74503;SDS011;62988;55.776;37.544;2022-10-17T16:50:42;15.15;;;6.68;;
74503;SDS011;62988;55.776;37.544;2022-10-17T16:53:07;13.07;;;6.68;;
74503;SDS011;62988;55.776;37.544;2022-10-17T16:55:33;18.67;;;6.93;;
74503;SDS011;62988;55.776;37.544;2022-10-17T16:57:58;17.90;;;6.97;;
74503;SDS011;62988;55.776;37.544;2022-10-17T17:00:25;15.38;;;7.35;;